createdAt,value
2023-03-03T00:01:03.288Z,8.13
2023-03-03T00:03:32.789Z,8.80
2023-03-03T00:06:00.985Z,8.20
2023-03-03T00:08:28.909Z,9.07
2023-03-03T00:10:56.695Z,9.13
2023-03-03T00:13:26.353Z,9.10
2023-03-03T00:15:55.069Z,8.47
2023-03-03T00:18:29.992Z,8.83
2023-03-03T00:21:01.465Z,8.17
2023-03-03T00:23:37.292Z,8.10
2023-03-03T00:26:20.429Z,8.40
2023-03-03T00:28:50.911Z,8.27
2023-03-03T00:31:22.499Z,8.80
2023-03-03T00:33:54.656Z,7.57
2023-03-03T00:36:38.387Z,8.47
2023-03-03T00:39:24.833Z,9.13
2023-03-03T00:41:53.023Z,8.70
2023-03-03T00:44:42.882Z,8.90
2023-03-03T00:47:31.782Z,9.07
2023-03-03T00:50:28.334Z,8.97
2023-03-03T00:53:08.637Z,8.97
2023-03-03T00:55:37.235Z,9.00
2023-03-03T00:58:05.610Z,9.10
2023-03-03T01:00:38.394Z,9.50
2023-03-03T01:03:10.747Z,9.00
2023-03-03T01:05:38.710Z,9.07
2023-03-03T01:08:08.549Z,10.17
2023-03-03T01:10:40.209Z,9.87
2023-03-03T01:13:09.714Z,9.57
2023-03-03T01:15:38.686Z,10.00
2023-03-03T01:18:06.669Z,10.50
2023-03-03T01:20:35.292Z,9.67
2023-03-03T01:23:03.524Z,9.57
2023-03-03T01:25:33.652Z,10.13
2023-03-03T01:28:01.501Z,9.77
2023-03-03T01:30:29.676Z,10.50
2023-03-03T01:32:58.222Z,9.93
2023-03-03T01:35:26.295Z,9.43
2023-03-03T01:37:54.100Z,10.17
2023-03-03T01:40:24.742Z,10.60
2023-03-03T01:42:53.996Z,10.90
2023-03-03T01:45:24.246Z,10.33
2023-03-03T01:48:02.707Z,10.27
2023-03-03T01:50:47.624Z,10.60
2023-03-03T01:53:19.998Z,10.40
2023-03-03T01:55:51.298Z,11.43
2023-03-03T01:58:25.058Z,10.77
2023-03-03T02:00:58.842Z,10.87
2023-03-03T02:03:27.023Z,10.60
2023-03-03T02:05:58.963Z,11.70
2023-03-03T02:08:32.607Z,11.33
2023-03-03T02:11:00.830Z,12.37
2023-03-03T02:13:30.222Z,11.77
2023-03-03T02:15:59.130Z,12.80
2023-03-03T02:18:28.166Z,13.27
2023-03-03T02:21:03.443Z,12.30
2023-03-03T02:23:39.680Z,12.97
2023-03-03T02:26:11.954Z,13.13
2023-03-03T02:28:41.360Z,13.77
2023-03-03T02:31:14.265Z,13.63
2023-03-03T02:33:43.757Z,13.30
2023-03-03T02:36:14.582Z,13.77
2023-03-03T02:38:47.752Z,13.33
2023-03-03T02:41:26.903Z,12.90
2023-03-03T02:44:00.358Z,13.83
2023-03-03T02:46:32.803Z,13.47
2023-03-03T02:49:01.969Z,14.00
2023-03-03T02:51:30.401Z,12.77
2023-03-03T02:53:58.464Z,13.93
2023-03-03T02:56:30.394Z,13.57
2023-03-03T02:58:58.325Z,13.23
2023-03-03T03:01:26.377Z,14.50
2023-03-03T03:03:55.453Z,13.87
2023-03-03T03:06:24.470Z,13.90
2023-03-03T03:08:52.550Z,14.33
2023-03-03T03:11:20.290Z,13.67
2023-03-03T03:13:50.473Z,13.97
2023-03-03T03:16:18.369Z,14.17
2023-03-03T03:18:46.824Z,14.73
2023-03-03T03:21:15.805Z,15.10
2023-03-03T03:23:43.875Z,14.87
2023-03-03T03:26:13.464Z,15.00
2023-03-03T03:28:41.575Z,15.00
2023-03-03T03:31:11.239Z,16.27
2023-03-03T03:33:39.012Z,16.03
2023-03-03T03:36:08.815Z,16.20
2023-03-03T03:38:37.762Z,15.57
2023-03-03T03:41:08.694Z,16.97
2023-03-03T03:43:37.228Z,16.67
2023-03-03T03:46:05.633Z,15.93
2023-03-03T03:48:36.078Z,16.23
2023-03-03T03:51:06.946Z,17.33
2023-03-03T03:53:36.014Z,17.13
2023-03-03T03:56:03.878Z,17.57
2023-03-03T03:58:32.327Z,18.00
2023-03-03T04:01:06.112Z,17.47
2023-03-03T04:03:37.685Z,17.90
2023-03-03T04:06:09.727Z,17.23
2023-03-03T04:08:37.594Z,19.23
2023-03-03T04:11:05.726Z,17.57
2023-03-03T04:13:35.368Z,17.73
2023-03-03T04:16:07.333Z,17.97
2023-03-03T04:18:37.940Z,20.20
2023-03-03T04:21:06.149Z,19.70
2023-03-03T04:23:34.550Z,19.97
2023-03-03T04:26:03.449Z,20.13
2023-03-03T04:28:31.519Z,19.50
2023-03-03T04:31:00.621Z,21.10
2023-03-03T04:33:30.962Z,21.17
2023-03-03T04:36:00.896Z,21.70
2023-03-03T04:38:29.032Z,22.03
2023-03-03T04:40:57.800Z,22.23
2023-03-03T04:43:27.635Z,23.10
2023-03-03T04:45:56.617Z,22.13
2023-03-03T04:48:24.457Z,22.50
2023-03-03T04:50:52.867Z,22.73
2023-03-03T04:53:22.688Z,24.73
2023-03-03T04:55:51.576Z,23.40
2023-03-03T04:58:19.971Z,23.63
2023-03-03T05:00:49.421Z,23.90
2023-03-03T05:03:17.218Z,24.73
2023-03-03T05:05:44.988Z,24.87
2023-03-03T05:08:12.808Z,25.17
2023-03-03T05:10:42.457Z,24.57
2023-03-03T05:13:10.662Z,24.33
2023-03-03T05:15:38.643Z,24.73
2023-03-03T05:18:06.648Z,25.93
2023-03-03T05:20:34.299Z,26.87
2023-03-03T05:23:02.103Z,25.80
2023-03-03T05:25:29.940Z,26.13
2023-03-03T05:27:59.804Z,27.27
2023-03-03T05:30:27.572Z,26.77
2023-03-03T05:32:55.264Z,27.57
2023-03-03T05:35:23.335Z,26.70
2023-03-03T05:37:52.707Z,27.37
2023-03-03T05:40:20.515Z,26.70
2023-03-03T05:42:49.124Z,28.43
2023-03-03T05:45:20.352Z,26.57
2023-03-03T05:47:48.592Z,26.90
2023-03-03T05:50:17.440Z,27.03
2023-03-03T05:52:46.012Z,27.00
2023-03-03T05:55:13.884Z,26.10
2023-03-03T05:57:41.681Z,25.97
2023-03-03T06:00:10.924Z,26.67
2023-03-03T06:02:43.858Z,27.70
2023-03-03T06:05:12.322Z,27.43
2023-03-03T06:07:40.027Z,27.27
2023-03-03T06:10:08.499Z,28.07
2023-03-03T06:12:39.234Z,27.30
2023-03-03T06:15:08.328Z,27.57
2023-03-03T06:17:36.092Z,27.67
2023-03-03T06:20:06.191Z,26.97
2023-03-03T06:22:34.212Z,28.83
2023-03-03T06:25:01.936Z,29.10
2023-03-03T06:27:30.092Z,27.53
2023-03-03T06:29:57.817Z,27.53
2023-03-03T06:32:25.781Z,27.23
2023-03-03T06:34:54.001Z,27.60
2023-03-03T06:37:23.061Z,27.77
2023-03-03T06:39:53.721Z,31.13
2023-03-03T06:42:21.553Z,29.63
2023-03-03T06:44:50.307Z,29.70
2023-03-03T06:47:18.036Z,28.53
2023-03-03T06:49:46.215Z,30.37
2023-03-03T06:52:18.922Z,30.40
2023-03-03T06:54:49.318Z,31.20
2023-03-03T06:57:24.283Z,31.70
2023-03-03T06:59:55.627Z,29.87
2023-03-03T07:02:23.605Z,32.13
2023-03-03T07:04:51.625Z,31.73
2023-03-03T07:07:21.640Z,31.00
2023-03-03T07:09:53.166Z,32.30
2023-03-03T07:12:23.578Z,32.40
2023-03-03T07:14:55.928Z,32.47
2023-03-03T07:17:26.430Z,32.30
2023-03-03T07:19:55.057Z,30.67
2023-03-03T07:22:26.263Z,31.50
2023-03-03T07:25:00.722Z,32.17
2023-03-03T07:27:29.966Z,33.13
2023-03-03T07:30:20.728Z,31.77
2023-03-03T07:32:50.422Z,31.97
2023-03-03T07:35:31.127Z,31.43
2023-03-03T07:37:59.040Z,32.00
2023-03-03T07:40:37.145Z,31.67
2023-03-03T07:43:27.561Z,31.37
2023-03-03T07:46:01.379Z,33.97
2023-03-03T07:48:35.802Z,34.07
2023-03-03T07:51:07.161Z,32.60
2023-03-03T07:53:37.978Z,34.70
2023-03-03T07:56:23.658Z,35.50
2023-03-03T07:58:52.460Z,32.30
2023-03-03T08:01:42.669Z,32.10
2023-03-03T08:04:20.821Z,32.53
2023-03-03T08:06:52.526Z,32.40
2023-03-03T08:09:43.527Z,33.80
2023-03-03T08:12:49.439Z,33.73
2023-03-03T08:15:32.696Z,33.23
2023-03-03T08:18:02.827Z,33.87
2023-03-03T08:20:52.367Z,34.23
2023-03-03T08:23:21.175Z,34.90
2023-03-03T08:25:51.312Z,35.40
2023-03-03T08:28:21.278Z,35.37
2023-03-03T08:30:50.540Z,36.97
2023-03-03T08:33:19.427Z,36.83
2023-03-03T08:35:48.180Z,35.17
2023-03-03T08:38:18.901Z,34.67
2023-03-03T08:40:47.940Z,37.33
2023-03-03T08:43:17.335Z,37.23
2023-03-03T08:45:48.311Z,34.80
2023-03-03T08:48:16.475Z,37.03
2023-03-03T08:50:45.402Z,36.17
2023-03-03T08:53:14.751Z,35.40
2023-03-03T08:55:43.111Z,34.90
2023-03-03T08:58:10.752Z,36.00
2023-03-03T09:00:39.340Z,36.27
2023-03-03T09:03:09.185Z,38.40
2023-03-03T09:05:39.101Z,37.83
2023-03-03T09:08:08.077Z,36.47
2023-03-03T09:10:36.756Z,37.23
2023-03-03T09:13:13.338Z,37.43
2023-03-03T09:15:41.291Z,37.00
2023-03-03T09:18:17.724Z,35.83
2023-03-03T09:20:47.287Z,36.50
2023-03-03T09:23:29.537Z,36.30
2023-03-03T09:25:58.334Z,33.77
2023-03-03T09:28:27.931Z,35.07
2023-03-03T09:30:58.571Z,34.83
2023-03-03T09:33:30.440Z,35.33
2023-03-03T09:36:05.000Z,32.75
2023-03-03T09:38:35.446Z,33.60
2023-03-03T09:41:28.521Z,32.65
2023-03-03T09:44:18.533Z,32.03
2023-03-03T09:47:00.354Z,32.10
2023-03-03T09:49:33.375Z,33.33
2023-03-03T09:52:13.306Z,32.73
2023-03-03T09:54:55.566Z,32.55
2023-03-03T09:57:30.445Z,32.50
2023-03-03T10:00:18.944Z,31.67
2023-03-03T10:02:56.786Z,32.22
2023-03-03T10:05:36.244Z,32.35
2023-03-03T10:08:36.137Z,31.55
2023-03-03T10:11:17.080Z,30.55
2023-03-03T10:14:02.062Z,31.33
2023-03-03T10:16:45.814Z,31.90
2023-03-03T10:19:29.084Z,30.67
2023-03-03T10:22:08.475Z,30.65
2023-03-03T10:24:48.849Z,29.70
2023-03-03T10:27:34.938Z,30.50
2023-03-03T10:30:11.842Z,28.88
2023-03-03T10:32:52.874Z,30.52
2023-03-03T10:36:07.361Z,30.27
2023-03-03T10:39:03.751Z,29.45
2023-03-03T10:41:44.734Z,29.05
2023-03-03T10:44:34.907Z,29.98
2023-03-03T10:47:22.585Z,28.55
2023-03-03T10:50:02.555Z,27.95
2023-03-03T10:52:39.293Z,28.42
2023-03-03T10:55:31.748Z,28.27
2023-03-03T10:58:19.610Z,29.55
2023-03-03T11:00:54.974Z,28.27
2023-03-03T11:04:04.726Z,29.10
2023-03-03T11:06:44.647Z,30.65
2023-03-03T11:09:31.825Z,29.88
2023-03-03T11:12:11.879Z,28.42
2023-03-03T11:14:49.275Z,29.88
2023-03-03T11:17:24.731Z,27.38
2023-03-03T11:20:03.441Z,28.27
2023-03-03T11:22:43.997Z,28.65
2023-03-03T11:25:28.138Z,28.05
2023-03-03T11:28:27.758Z,28.13
2023-03-03T11:31:11.359Z,29.13
2023-03-03T11:33:51.930Z,28.00
2023-03-03T11:36:24.285Z,27.92
2023-03-03T11:38:59.776Z,28.00
2023-03-03T11:41:38.788Z,30.05
2023-03-03T11:44:18.383Z,28.17
2023-03-03T11:46:49.816Z,28.52
2023-03-03T11:49:25.867Z,28.33
2023-03-03T11:52:07.973Z,26.55
2023-03-03T11:54:52.267Z,27.88
2023-03-03T11:57:24.935Z,27.33
2023-03-03T12:00:04.868Z,27.52
2023-03-03T12:02:55.848Z,27.17
2023-03-03T12:05:39.576Z,28.38
2023-03-03T12:08:19.369Z,27.88
2023-03-03T12:10:53.998Z,28.55
2023-03-03T12:13:28.244Z,27.55
2023-03-03T12:16:06.466Z,27.77
2023-03-03T12:18:54.690Z,26.50
2023-03-03T12:21:41.855Z,24.48
2023-03-03T12:24:26.611Z,24.27
2023-03-03T12:27:08.003Z,25.48
2023-03-03T12:29:47.417Z,23.55
2023-03-03T12:32:29.012Z,23.42
2023-03-03T12:35:03.176Z,23.92
2023-03-03T12:37:48.414Z,23.77
2023-03-03T12:40:20.893Z,23.65
2023-03-03T12:43:05.785Z,22.95
2023-03-03T12:45:45.097Z,23.42
2023-03-03T12:48:18.772Z,21.83
2023-03-03T12:51:00.365Z,22.33
2023-03-03T12:53:52.838Z,22.25
2023-03-03T12:56:34.053Z,21.52
2023-03-03T12:59:05.768Z,21.25
2023-03-03T13:01:44.724Z,21.60
2023-03-03T13:04:27.503Z,21.80
2023-03-03T13:07:02.059Z,20.63
2023-03-03T13:09:41.507Z,20.90
2023-03-03T13:12:22.625Z,20.95
2023-03-03T13:14:54.455Z,20.95
2023-03-03T13:17:28.927Z,20.98
2023-03-03T13:20:01.250Z,20.33
2023-03-03T13:22:39.841Z,20.33
2023-03-03T13:25:18.419Z,20.05
2023-03-03T13:27:50.224Z,20.10
2023-03-03T13:30:23.291Z,19.88
2023-03-03T13:32:56.287Z,20.10
2023-03-03T13:35:34.663Z,20.20
2023-03-03T13:38:05.773Z,20.70
2023-03-03T13:40:44.328Z,19.48
2023-03-03T13:43:19.182Z,19.30
2023-03-03T13:46:05.645Z,19.27
2023-03-03T13:48:58.932Z,19.45
2023-03-03T13:51:38.287Z,18.77
2023-03-03T13:54:16.651Z,18.15
2023-03-03T13:57:05.258Z,18.38
2023-03-03T13:59:43.144Z,18.40
2023-03-03T14:02:31.773Z,19.23
2023-03-03T14:05:04.599Z,18.25
2023-03-03T14:07:38.720Z,17.92
2023-03-03T14:10:13.112Z,18.50
2023-03-03T14:12:59.505Z,17.52
2023-03-03T14:15:41.287Z,17.50
2023-03-03T14:18:33.816Z,16.95
2023-03-03T14:21:08.890Z,16.08
2023-03-03T14:23:51.192Z,15.48
2023-03-03T14:26:19.099Z,17.35
2023-03-03T14:28:50.098Z,16.20
2023-03-03T14:31:23.146Z,16.65
2023-03-03T14:34:02.365Z,15.90
2023-03-03T14:36:34.560Z,18.00
2023-03-03T14:39:04.026Z,15.90
2023-03-03T14:41:41.841Z,18.00
2023-03-03T14:44:27.296Z,17.75
2023-03-03T14:47:23.516Z,20.33
2023-03-03T14:49:52.550Z,18.23
2023-03-03T14:52:25.186Z,17.85
2023-03-03T14:54:56.041Z,16.35
2023-03-03T14:57:41.621Z,17.67
2023-03-03T15:00:29.384Z,17.38
2023-03-03T15:03:06.624Z,16.42
2023-03-03T15:05:35.177Z,16.23
2023-03-03T15:08:10.970Z,15.60
2023-03-03T15:10:42.117Z,15.88
2023-03-03T15:13:29.407Z,15.95
2023-03-03T15:16:12.327Z,14.85
2023-03-03T15:19:07.107Z,13.88
2023-03-03T15:21:38.198Z,14.43
2023-03-03T15:24:11.405Z,14.63
2023-03-03T15:26:48.583Z,15.35
2023-03-03T15:29:21.557Z,14.25
2023-03-03T15:31:55.390Z,14.82
2023-03-03T15:34:33.881Z,14.55
2023-03-03T15:37:13.825Z,15.02
2023-03-03T15:39:51.453Z,14.90
2023-03-03T15:42:28.045Z,14.77
2023-03-03T15:45:03.736Z,15.20
2023-03-03T15:48:01.456Z,14.40
2023-03-03T15:50:53.906Z,15.30
2023-03-03T15:53:38.605Z,14.68
2023-03-03T15:56:20.691Z,15.13
2023-03-03T15:59:30.285Z,14.20
2023-03-03T16:02:10.215Z,15.30
2023-03-03T16:04:45.057Z,14.75
2023-03-03T16:07:26.024Z,15.45
2023-03-03T16:10:04.550Z,14.45
2023-03-03T16:13:00.395Z,15.15
2023-03-03T16:16:04.958Z,15.60
2023-03-03T16:18:58.594Z,15.82
2023-03-03T16:21:45.619Z,15.63
2023-03-03T16:24:35.044Z,15.60
2023-03-03T16:27:12.172Z,17.75
2023-03-03T16:29:59.957Z,17.02
2023-03-03T16:32:46.406Z,18.23
2023-03-03T16:38:34.424Z,18.23
2023-03-03T16:41:25.381Z,17.92
2023-03-03T16:44:09.720Z,16.55
2023-03-03T16:46:57.486Z,17.38
2023-03-03T16:49:39.908Z,17.85
2023-03-03T16:52:18.921Z,17.15
2023-03-03T16:54:59.239Z,17.83
2023-03-03T16:57:48.399Z,15.73
2023-03-03T17:00:45.568Z,16.20
2023-03-03T17:03:56.448Z,16.00
2023-03-03T17:06:46.091Z,17.33
2023-03-03T17:09:42.798Z,19.17
2023-03-03T17:12:45.635Z,20.35
2023-03-03T17:15:42.156Z,21.92
2023-03-03T17:18:19.902Z,23.25
2023-03-03T17:20:53.868Z,24.38
2023-03-03T17:23:36.483Z,26.00
2023-03-03T17:26:23.061Z,28.27
2023-03-03T17:29:05.256Z,25.35
2023-03-03T17:31:40.515Z,26.08
2023-03-03T17:34:20.936Z,27.50
2023-03-03T17:37:02.842Z,25.92
2023-03-03T17:39:58.692Z,26.42
2023-03-03T17:42:35.369Z,26.60
2023-03-03T17:45:07.316Z,28.95
2023-03-03T17:47:47.672Z,27.88
2023-03-03T17:51:03.050Z,27.67
2023-03-03T17:54:16.438Z,26.88
2023-03-03T17:56:54.568Z,25.88
2023-03-03T17:59:48.999Z,26.70
2023-03-03T18:02:38.123Z,26.77
2023-03-03T18:05:41.888Z,28.48
2023-03-03T18:08:27.100Z,26.50
2023-03-03T18:11:25.540Z,26.30
2023-03-03T18:14:20.131Z,24.75
2023-03-03T18:17:19.346Z,22.88
2023-03-03T18:20:15.586Z,22.67
2023-03-03T18:22:47.300Z,22.73
2023-03-03T18:25:28.765Z,22.02
2023-03-03T18:28:29.273Z,19.50
2023-03-03T18:31:37.098Z,20.83
2023-03-03T18:34:41.959Z,17.73
2023-03-03T18:37:43.936Z,16.52
2023-03-03T18:40:56.242Z,16.58
2023-03-03T18:44:05.547Z,16.88
2023-03-03T18:46:49.844Z,17.08
2023-03-03T18:49:21.936Z,17.33
2023-03-03T18:52:19.166Z,19.02
2023-03-03T18:55:17.278Z,18.40
2023-03-03T18:58:19.962Z,17.65
2023-03-03T19:00:54.324Z,17.85
2023-03-03T19:03:33.366Z,21.23
2023-03-03T19:06:06.169Z,22.25
2023-03-03T19:08:53.888Z,27.10
2023-03-03T19:11:38.551Z,27.33
2023-03-03T19:14:34.163Z,26.95
2023-03-03T19:17:57.456Z,27.13
2023-03-03T19:20:40.657Z,26.58
2023-03-03T19:23:16.585Z,28.02
2023-03-03T19:25:46.929Z,28.10
2023-03-03T19:28:43.163Z,28.88
2023-03-03T19:31:22.495Z,29.02
2023-03-03T19:33:57.040Z,28.40
2023-03-03T19:36:46.997Z,29.10
2023-03-03T19:39:52.162Z,28.55
2023-03-03T19:42:31.396Z,29.38
2023-03-03T19:45:19.303Z,29.05
2023-03-03T19:47:53.255Z,29.27
2023-03-03T19:50:34.442Z,28.70
2023-03-03T19:53:14.858Z,29.93
2023-03-03T19:56:00.850Z,29.60
2023-03-03T19:58:43.342Z,29.42
2023-03-03T20:01:23.584Z,30.27
2023-03-03T20:04:18.328Z,29.97
2023-03-03T20:07:04.956Z,28.05
2023-03-03T20:21:56.228Z,30.02
2023-03-03T20:24:46.124Z,29.87
2023-03-03T20:27:21.202Z,30.27
2023-03-03T20:30:08.292Z,30.73
2023-03-03T20:33:01.036Z,29.37
2023-03-03T20:35:43.181Z,30.93
2023-03-03T20:38:25.144Z,31.47
2023-03-03T20:41:06.431Z,30.90
2023-03-03T20:43:47.069Z,31.27
2023-03-03T20:46:25.394Z,30.23
2023-03-03T20:49:29.483Z,31.13
2023-03-03T20:52:03.749Z,30.43
2023-03-03T20:54:44.813Z,32.20
2023-03-03T20:57:36.333Z,32.10
2023-03-03T21:00:23.343Z,30.87
2023-03-03T21:03:28.339Z,30.83
2023-03-03T21:18:21.992Z,31.17
2023-03-03T21:20:49.693Z,31.57
2023-03-03T21:23:17.487Z,31.53
2023-03-03T21:25:53.434Z,32.07
2023-03-03T21:28:24.670Z,31.10
2023-03-03T21:31:08.309Z,31.87
2023-03-03T21:33:49.059Z,32.10
2023-03-03T21:36:18.548Z,32.87
2023-03-03T21:38:47.497Z,33.50
2023-03-03T21:41:17.445Z,32.83
2023-03-03T21:43:47.403Z,34.27
2023-03-03T21:46:19.499Z,32.57
2023-03-03T21:48:48.938Z,32.57
2023-03-03T21:51:16.997Z,34.37
2023-03-03T21:53:45.890Z,34.33
2023-03-03T21:56:15.074Z,32.17
2023-03-03T21:58:43.341Z,35.37
2023-03-03T22:01:12.399Z,33.33
2023-03-03T22:03:40.521Z,32.93
2023-03-03T22:06:09.586Z,34.80
2023-03-03T22:08:37.353Z,33.50
2023-03-03T22:11:05.643Z,33.53
2023-03-03T22:13:33.509Z,34.17
2023-03-03T22:16:01.587Z,36.43
2023-03-03T22:18:29.544Z,36.03
2023-03-03T22:20:57.405Z,37.20
2023-03-03T22:23:26.897Z,35.93
2023-03-03T22:25:55.603Z,33.63
2023-03-03T22:28:23.345Z,34.10
2023-03-03T22:30:51.078Z,33.70
2023-03-03T22:33:18.959Z,34.30
2023-03-03T22:35:46.782Z,34.00
2023-03-03T22:38:15.549Z,34.60
2023-03-03T22:40:44.918Z,34.43
2023-03-03T22:43:14.531Z,36.00
2023-03-03T22:45:42.582Z,33.67
2023-03-03T22:48:10.328Z,36.13
2023-03-03T22:50:42.618Z,35.63
2023-03-03T22:53:10.804Z,35.23
2023-03-03T22:55:39.163Z,35.40
2023-03-03T22:58:09.621Z,36.40
2023-03-03T23:00:38.304Z,36.03
2023-03-03T23:03:06.661Z,35.40
2023-03-03T23:05:36.133Z,35.47
2023-03-03T23:08:06.187Z,35.67
2023-03-03T23:10:35.762Z,37.37
2023-03-03T23:13:06.877Z,37.60
2023-03-03T23:15:38.189Z,37.07
2023-03-03T23:18:07.226Z,36.13
2023-03-03T23:20:38.069Z,36.20
2023-03-03T23:23:06.365Z,35.17
2023-03-03T23:25:34.473Z,37.80
2023-03-03T23:28:02.224Z,39.20
2023-03-03T23:30:30.193Z,38.37
2023-03-03T23:32:59.206Z,44.47
2023-03-03T23:35:27.105Z,43.27
2023-03-03T23:37:55.742Z,43.07
2023-03-03T23:40:23.524Z,44.93
2023-03-03T23:42:51.560Z,39.87
2023-03-03T23:45:19.438Z,37.93
2023-03-03T23:47:47.222Z,39.17
2023-03-03T23:50:16.208Z,39.53
2023-03-03T23:52:43.959Z,39.50
2023-03-03T23:55:12.223Z,40.77
2023-03-03T23:57:40.079Z,39.07
